Time;durP1;ratioP1;P1;durP2;ratioP2;P2;SDS_P1;SDS_P2;PMS_P1;PMS_P2;Temp;Humidity;BMP_temperature;BMP_pressure;BME280_temperature;BME280_humidity;BME280_pressure;Samples;Min_cycle;Max_cycle;Signal;HPM_P1;HPM_P2
2022/12/15 00:38:40;;;;;;;34.70;21.30;;;21.40;48.30;;;;;;215411;1279;22612;-55
2022/12/15 00:43:44;;;;;;;31.00;20.60;;;21.30;48.30;;;;;;215756;1280;25403;-55
2022/12/15 00:48:48;;;;;;;31.80;19.20;;;21.30;48.30;;;;;;215762;1279;22468;-56
2022/12/15 01:20:58;;;;;;;34.20;20.90;;;22.40;48.90;;;;;;215464;1274;25535;-55
2022/12/15 01:26:02;;;;;;;32.60;18.70;;;22.60;48.60;;;;;;215578;1277;22507;-55
2022/12/15 01:31:11;;;;;;;31.10;18.80;;;22.70;48.30;;;;;;215605;1291;22465;-55
2022/12/15 01:36:14;;;;;;;34.20;20.50;;;22.70;47.60;;;;;;215325;1279;24243;-54
2022/12/15 01:41:19;;;;;;;28.40;19.00;;;22.80;47.60;;;;;;215701;1284;22456;-55
2022/12/15 01:46:23;;;;;;;31.70;18.90;;;22.80;47.30;;;;;;215564;1276;23830;-56
2022/12/15 01:51:36;;;;;;;29.60;19.20;;;22.90;47.20;;;;;;215563;1282;22841;-56
2022/12/15 01:56:48;;;;;;;31.00;19.30;;;22.90;46.90;;;;;;218568;1275;22493;-54
2022/12/15 02:03:00;;;;;;;28.20;18.10;;;22.90;47.30;;;;;;217920;1272;67735;31
2022/12/15 02:08:10;;;;;;;29.00;18.90;;;23.00;46.90;;;;;;212939;1307;22613;-58
2022/12/15 02:13:43;;;;;;;30.30;18.60;;;23.00;46.50;;;;;;212168;1307;25335;-58
2022/12/15 02:19:11;;;;;;;30.60;19.00;;;23.00;46.50;;;;;;212393;1286;24290;-56
2022/12/15 02:24:36;;;;;;;25.70;17.60;;;23.10;46.50;;;;;;212169;1315;23911;-57
2022/12/15 02:30:05;;;;;;;27.40;18.10;;;23.10;46.30;;;;;;212249;1293;22478;-61
2022/12/15 02:35:26;;;;;;;29.90;18.20;;;23.10;46.20;;;;;;212039;1293;24280;-59
2022/12/15 02:40:31;;;;;;;28.40;17.10;;;23.00;46.30;;;;;;212179;1312;25872;-58
2022/12/15 02:45:53;;;;;;;29.60;17.90;;;23.00;46.40;;;;;;212181;1304;23942;-57
2022/12/15 02:51:13;;;;;;;28.20;17.40;;;22.90;46.80;;;;;;212306;1294;23404;-59
2022/12/15 02:56:23;;;;;;;26.00;17.60;;;22.70;47.40;;;;;;212311;1313;25348;-59
2022/12/15 03:01:37;;;;;;;29.40;18.20;;;22.50;47.20;;;;;;212245;1316;22873;-57
2022/12/15 03:06:41;;;;;;;25.90;17.20;;;22.40;47.50;;;;;;212501;1309;22614;-58
2022/12/15 03:11:45;;;;;;;26.40;17.90;;;22.30;47.60;;;;;;212388;1294;22500;-59
2022/12/15 03:16:48;;;;;;;28.10;17.60;;;22.20;47.70;;;;;;212397;1309;26150;-55
2022/12/15 03:21:52;;;;;;;27.60;17.80;;;22.10;47.80;;;;;;212283;1300;22548;-57
2022/12/15 03:26:56;;;;;;;26.50;17.80;;;22.00;47.90;;;;;;212310;1312;25661;-58
2022/12/15 03:32:00;;;;;;;26.50;17.80;;;22.00;48.00;;;;;;212334;1314;25441;-60
2022/12/15 03:37:04;;;;;;;26.60;16.70;;;21.90;48.20;;;;;;212267;1289;25540;-58
2022/12/15 03:42:08;;;;;;;28.40;16.80;;;21.80;48.20;;;;;;213916;1293;22548;-57
2022/12/15 03:47:12;;;;;;;26.20;16.70;;;21.70;48.20;;;;;;212581;1302;22524;-57
2022/12/15 03:52:15;;;;;;;24.30;16.60;;;21.70;48.40;;;;;;215723;1307;25539;-59
2022/12/15 03:57:19;;;;;;;27.10;17.20;;;21.60;48.40;;;;;;212289;1293;22892;-60
2022/12/15 04:02:23;;;;;;;28.70;17.30;;;21.60;48.80;;;;;;212369;1309;22492;-57
2022/12/15 04:07:29;;;;;;;22.00;15.40;;;21.50;48.60;;;;;;212524;1296;22474;-60
2022/12/15 04:12:33;;;;;;;26.10;17.30;;;21.50;48.70;;;;;;212197;1309;23874;-56
2022/12/15 04:17:37;;;;;;;27.10;17.40;;;21.40;48.70;;;;;;212362;1293;22490;-59
2022/12/15 04:22:43;;;;;;;24.20;15.90;;;21.30;48.80;;;;;;212480;1299;22505;-57
2022/12/15 05:32:22;;;;;;;20.40;14.40;;;22.90;46.10;;;;;;212457;1299;22499;-59
2022/12/15 05:37:35;;;;;;;21.30;14.50;;;23.00;46.00;;;;;;212254;1313;24034;-58
2022/12/15 05:42:41;;;;;;;19.90;14.30;;;23.00;45.80;;;;;;212313;1289;24265;-58
2022/12/15 05:48:03;;;;;;;22.00;14.60;;;23.00;45.70;;;;;;212238;1293;23967;-59
2022/12/15 05:53:06;;;;;;;20.60;13.80;;;23.10;45.60;;;;;;212516;1313;24266;-60
2022/12/15 05:58:10;;;;;;;18.30;12.60;;;23.10;45.60;;;;;;212293;1311;24098;-59
2022/12/15 06:03:14;;;;;;;19.90;13.00;;;23.10;45.60;;;;;;212285;1302;24261;-57
2022/12/15 06:08:18;;;;;;;20.20;13.80;;;23.10;45.70;;;;;;212414;1313;25287;-58
2022/12/15 06:13:23;;;;;;;17.70;12.50;;;23.10;45.50;;;;;;212306;1308;24052;-59
2022/12/15 06:18:30;;;;;;;20.20;13.70;;;23.20;45.70;;;;;;212271;1299;25556;-58
2022/12/15 06:23:34;;;;;;;21.10;13.80;;;23.20;45.70;;;;;;212106;1293;24244;-58
2022/12/15 06:28:38;;;;;;;17.90;13.50;;;23.20;45.60;;;;;;212251;1309;22554;-59
2022/12/15 06:33:43;;;;;;;19.00;13.20;;;23.20;45.60;;;;;;212464;1293;22489;-57
2022/12/15 06:38:47;;;;;;;20.20;14.10;;;23.20;46.10;;;;;;212575;1308;25483;-59
2022/12/15 06:43:54;;;;;;;18.50;13.10;;;23.30;45.70;;;;;;212491;1300;24426;-57
2022/12/15 06:48:58;;;;;;;18.20;12.70;;;23.20;45.50;;;;;;212162;1302;22481;-59
2022/12/15 06:54:02;;;;;;;22.00;13.60;;;23.20;45.40;;;;;;212272;1306;24335;-58
2022/12/15 06:59:07;;;;;;;17.80;12.90;;;23.10;46.00;;;;;;212378;1307;22491;-56
2022/12/15 07:04:11;;;;;;;19.70;12.00;;;23.00;46.30;;;;;;212613;1296;22474;-59
2022/12/15 07:09:17;;;;;;;21.50;13.80;;;22.90;47.40;;;;;;212519;1310;22515;-59
2022/12/15 07:14:23;;;;;;;18.60;12.00;;;22.70;47.60;;;;;;212560;1308;25323;-58
2022/12/15 07:19:27;;;;;;;18.50;12.50;;;22.60;47.60;;;;;;212655;1301;22486;-58
2022/12/15 07:24:31;;;;;;;18.60;12.60;;;22.50;48.00;;;;;;212583;1312;25306;-59
2022/12/15 07:29:36;;;;;;;19.70;12.80;;;22.40;49.00;;;;;;212500;1299;25556;-59
2022/12/15 07:34:40;;;;;;;18.90;11.90;;;22.30;49.40;;;;;;219249;1302;22567;-56
2022/12/15 07:39:44;;;;;;;20.40;12.40;;;22.20;50.20;;;;;;212390;1296;24261;-58
2022/12/15 07:44:50;;;;;;;20.10;11.30;;;22.30;50.10;;;;;;212529;1309;23871;-61
2022/12/15 07:49:55;;;;;;;17.30;11.80;;;22.20;50.50;;;;;;212450;1287;22849;-59
2022/12/15 07:54:59;;;;;;;22.10;12.10;;;22.20;49.70;;;;;;212606;1293;24296;-57
2022/12/15 08:00:04;;;;;;;20.70;11.30;;;22.00;49.70;;;;;;212461;1302;22651;-59
2022/12/15 08:05:13;;;;;;;23.10;11.70;;;21.90;49.80;;;;;;212388;1299;25197;-59
2022/12/15 08:10:17;;;;;;;29.60;12.90;;;21.90;49.80;;;;;;212613;1309;25497;-58
2022/12/15 08:15:21;;;;;;;22.70;12.50;;;21.80;48.70;;;;;;212537;1305;24286;-58
2022/12/15 08:20:25;;;;;;;17.80;11.90;;;21.70;48.90;;;;;;212589;1313;25031;-60
2022/12/15 08:25:43;;;;;;;19.40;12.20;;;21.50;48.60;;;;;;212490;1313;25296;-59
2022/12/15 08:30:48;;;;;;;16.90;11.50;;;21.50;48.40;;;;;;212531;1286;22487;-58
2022/12/15 08:36:03;;;;;;;18.20;11.40;;;21.40;48.20;;;;;;212439;1307;22504;-59
2022/12/15 08:41:20;;;;;;;18.90;11.60;;;21.40;48.00;;;;;;212501;1293;24278;-58
2022/12/15 08:46:35;;;;;;;11.80;13.90;;;21.30;47.70;;;;;;212452;1295;22474;-60
2022/12/15 08:51:50;;;;;;;16.20;10.50;;;21.40;47.70;;;;;;212542;1303;22902;-58
2022/12/15 08:56:58;;;;;;;16.10;10.30;;;21.80;46.40;;;;;;212591;1283;22928;-59
2022/12/15 09:02:02;;;;;;;16.30;10.80;;;22.00;45.30;;;;;;212468;1296;22478;-58
2022/12/15 09:07:13;;;;;;;18.20;10.60;;;22.10;45.60;;;;;;212420;1306;26663;-61
2022/12/15 09:12:19;;;;;;;15.40;10.20;;;22.20;45.10;;;;;;212282;1300;22512;-57
2022/12/15 09:17:40;;;;;;;16.30;9.20;;;22.30;45.00;;;;;;212629;1299;22606;-61
2022/12/15 09:22:47;;;;;;;13.30;8.70;;;22.40;44.90;;;;;;211909;1302;22535;-61
2022/12/15 09:28:30;;;;;;;17.60;9.50;;;22.40;44.40;;;;;;212568;1293;24011;-60
2022/12/15 09:34:04;;;;;;;12.80;8.40;;;22.50;44.10;;;;;;211987;1308;22996;-61
2022/12/15 09:39:27;;;;;;;13.70;9.40;;;22.50;43.90;;;;;;212310;1312;22597;-60
2022/12/15 09:44:39;;;;;;;15.50;9.20;;;22.50;43.90;;;;;;212114;1300;24246;-59
2022/12/15 09:50:04;;;;;;;12.90;8.60;;;22.50;43.60;;;;;;212369;1296;24338;-60
2022/12/15 09:55:25;;;;;;;15.30;9.30;;;22.60;43.80;;;;;;212558;1307;25473;-52
2022/12/15 10:00:44;;;;;;;12.00;8.10;;;22.70;43.50;;;;;;212256;1295;24289;-59
2022/12/15 10:06:20;;;;;;;11.20;8.50;;;22.80;43.90;;;;;;212402;1313;22852;-58
2022/12/15 10:12:00;;;;;;;11.00;7.90;;;22.90;43.20;;;;;;212283;1308;22700;-55
2022/12/15 10:17:21;;;;;;;10.90;8.20;;;23.00;42.90;;;;;;212351;1303;22590;-59
2022/12/15 10:22:31;;;;;;;10.50;8.00;;;23.10;42.50;;;;;;212425;1296;24318;-59
2022/12/15 10:28:16;;;;;;;10.90;8.20;;;23.30;42.50;;;;;;212150;1313;22497;-55
2022/12/15 10:33:41;;;;;;;13.50;8.40;;;23.30;42.50;;;;;;212416;1296;25439;-62
2022/12/15 10:39:07;;;;;;;17.70;8.00;;;23.20;43.10;;;;;;212165;1296;23512;-62
2022/12/15 10:44:39;;;;;;;11.60;8.20;;;23.10;42.90;;;;;;212342;1292;22495;-60
2022/12/15 10:50:23;;;;;;;10.90;7.60;;;23.00;42.70;;;;;;212361;1296;25158;-61
2022/12/15 10:55:48;;;;;;;11.00;8.10;;;22.80;42.80;;;;;;212211;1295;22523;-62
2022/12/15 11:06:47;;;;;;;13.20;7.60;;;22.60;42.60;;;;;;211935;1314;24246;-62
2022/12/15 11:18:05;;;;;;;11.50;8.40;;;22.30;42.70;;;;;;211484;1307;22491;-60
2022/12/15 11:24:03;;;;;;;12.00;8.40;;;22.40;42.00;;;;;;212014;1311;22595;-60
2022/12/15 11:30:06;;;;;;;8.90;6.60;;;22.40;42.00;;;;;;211769;1315;24333;-58
2022/12/15 11:36:06;;;;;;;10.10;7.70;;;22.30;42.50;;;;;;211950;1315;25230;-59
2022/12/15 11:41:39;;;;;;;9.90;7.10;;;22.30;42.60;;;;;;211962;1310;23974;-59
2022/12/15 11:47:27;;;;;;;8.70;6.90;;;22.30;42.10;;;;;;211970;1313;23593;-61
2022/12/15 11:53:26;;;;;;;10.30;7.60;;;22.30;42.40;;;;;;211959;1296;24227;-62
2022/12/15 11:59:07;;;;;;;8.10;6.60;;;22.40;42.50;;;;;;212064;1310;25492;-50
2022/12/15 12:04:41;;;;;;;12.00;7.80;;;22.40;42.40;;;;;;211624;1300;22473;-50
2022/12/15 12:10:46;;;;;;;10.10;7.70;;;22.40;42.00;;;;;;211741;1317;22483;-53
2022/12/15 12:16:42;;;;;;;9.70;7.40;;;22.30;43.50;;;;;;210595;1321;22675;-48
2022/12/15 12:22:30;;;;;;;10.70;7.10;;;22.30;43.30;;;;;;210901;1321;22904;-47
2022/12/15 12:28:23;;;;;;;11.40;7.60;;;22.20;43.30;;;;;;211468;1317;22496;-47
2022/12/15 12:33:53;;;;;;;12.70;7.00;;;22.10;43.70;;;;;;211346;1317;22491;-53
2022/12/15 12:39:47;;;;;;;11.10;7.70;;;22.00;44.00;;;;;;211401;1318;24695;-53
2022/12/15 12:45:30;;;;;;;8.70;7.00;;;22.10;43.90;;;;;;212087;1299;22895;-46
2022/12/15 12:50:55;;;;;;;10.10;7.20;;;22.00;44.10;;;;;;211857;1315;22593;-51
2022/12/15 12:56:58;;;;;;;11.30;7.90;;;21.90;43.60;;;;;;212345;1313;25225;-54
2022/12/15 13:02:28;;;;;;;11.60;7.50;;;21.80;43.80;;;;;;212222;1313;23908;-50
2022/12/15 13:08:32;;;;;;;8.30;6.60;;;21.80;43.80;;;;;;212355;1311;25335;-51
2022/12/15 13:15:00;;;;;;;10.20;7.50;;;21.70;44.30;;;;;;212314;1307;26611;-49
2022/12/15 13:20:31;;;;;;;11.20;7.00;;;21.60;44.90;;;;;;211382;1296;23660;-48
2022/12/15 13:26:12;;;;;;;8.60;6.30;;;21.60;45.40;;;;;;211852;1296;22516;-53
2022/12/15 13:31:51;;;;;;;8.80;6.60;;;21.50;46.30;;;;;;211874;1299;24235;-50
2022/12/15 13:38:07;;;;;;;10.20;6.90;;;21.50;45.80;;;;;;211616;1313;23340;-50
2022/12/15 13:44:15;;;;;;;9.70;6.20;;;21.40;46.00;;;;;;211938;1303;22480;-50
2022/12/15 13:49:46;;;;;;;11.30;7.00;;;21.40;46.60;;;;;;211748;1296;24500;-51
2022/12/15 13:55:54;;;;;;;9.40;6.60;;;21.30;46.30;;;;;;212297;1296;22469;-49
2022/12/15 14:01:52;;;;;;;8.80;6.90;;;21.30;46.60;;;;;;212228;1299;22716;-51
2022/12/15 14:07:26;;;;;;;9.70;6.60;;;21.50;46.10;;;;;;212279;1296;24230;-52
2022/12/15 14:13:10;;;;;;;8.00;6.40;;;21.90;45.50;;;;;;212210;1296;23453;-52
2022/12/15 14:19:17;;;;;;;11.10;5.80;;;22.20;45.30;;;;;;212025;1309;22490;-52
2022/12/15 14:25:04;;;;;;;9.80;6.60;;;22.40;44.70;;;;;;211979;1305;23864;-52
2022/12/15 14:31:02;;;;;;;11.30;5.90;;;22.50;44.40;;;;;;212137;1296;22546;-49
2022/12/15 14:38:08;;;;;;;;;;;;;;;;;;;;;
2022/12/15 14:44:05;;;;;;;;;;;;;;;;;;;;;
2022/12/15 14:50:00;;;;;;;9.40;5.90;;;22.80;44.30;;;;;;211111;1320;25456;-46
2022/12/15 14:55:32;;;;;;;7.10;5.20;;;22.90;44.50;;;;;;211321;1318;22495;-48
2022/12/15 15:00:53;;;;;;;8.30;5.50;;;22.90;44.80;;;;;;211283;1308;22619;-50
2022/12/15 15:06:11;;;;;;;8.30;6.10;;;22.80;45.80;;;;;;210690;1309;22493;-46
2022/12/15 15:11:34;;;;;;;7.60;5.50;;;22.70;45.40;;;;;;211392;1312;23575;-47
2022/12/15 15:17:22;;;;;;;7.80;5.40;;;22.70;45.80;;;;;;212161;1297;23657;-46
2022/12/15 15:22:41;;;;;;;7.70;5.40;;;22.70;45.50;;;;;;211866;1302;24319;-47
2022/12/15 15:27:45;;;;;;;7.00;5.90;;;22.70;45.60;;;;;;211879;1311;22515;-44
2022/12/15 15:32:54;;;;;;;7.00;5.30;;;22.70;45.70;;;;;;212008;1301;24284;-46
2022/12/15 15:38:22;;;;;;;7.40;5.60;;;22.70;45.80;;;;;;211919;1318;22504;-46
2022/12/15 15:43:28;;;;;;;7.90;6.20;;;22.80;45.80;;;;;;211978;1317;22498;-45
2022/12/15 15:48:38;;;;;;;9.20;6.40;;;22.80;46.00;;;;;;211976;1303;22489;-46
2022/12/15 15:54:05;;;;;;;8.50;6.00;;;22.80;46.10;;;;;;212011;1308;22477;-49
2022/12/15 15:59:15;;;;;;;7.90;6.30;;;22.80;45.70;;;;;;211915;1311;24028;-49
2022/12/15 16:04:19;;;;;;;13.80;6.30;;;22.90;45.60;;;;;;211917;1299;24327;-45
2022/12/15 16:09:24;;;;;;;13.50;6.60;;;22.80;45.70;;;;;;211981;1302;22524;-49
2022/12/15 16:14:32;;;;;;;13.90;7.10;;;22.80;46.00;;;;;;212122;1306;22725;-47
2022/12/15 16:19:36;;;;;;;14.80;10.20;;;22.80;45.90;;;;;;212148;1300;24415;-45
2022/12/15 16:24:44;;;;;;;20.30;13.70;;;22.90;44.90;;;;;;212100;1302;24329;-45
2022/12/15 16:29:52;;;;;;;16.90;12.40;;;23.10;45.00;;;;;;212110;1300;24347;-46
2022/12/15 16:35:11;;;;;;;20.70;14.90;;;23.10;44.80;;;;;;212154;1296;22546;-46
2022/12/15 16:40:51;;;;;;;19.20;14.30;;;23.10;44.90;;;;;;211925;1317;25391;-43
2022/12/15 16:46:19;;;;;;;20.00;13.80;;;23.00;45.30;;;;;;211942;1300;24354;-45
2022/12/15 16:51:45;;;;;;;21.80;15.80;;;22.80;45.80;;;;;;211871;1315;23896;-48
2022/12/15 16:57:24;;;;;;;25.40;13.80;;;22.70;47.30;;;;;;212011;1302;22535;-48
2022/12/15 17:03:21;;;;;;;38.20;15.80;;;22.70;47.00;;;;;;211979;1314;22561;-55
2022/12/15 17:08:56;;;;;;;28.30;15.60;;;22.70;47.70;;;;;;211951;1308;22614;-50
2022/12/15 17:14:04;;;;;;;24.20;14.50;;;22.60;47.90;;;;;;212002;1294;24356;-52
2022/12/15 17:19:10;;;;;;;23.30;14.60;;;22.50;47.60;;;;;;212055;1300;22589;-50
2022/12/15 17:24:24;;;;;;;29.50;15.90;;;22.40;48.00;;;;;;211830;1304;22543;-51
2022/12/15 17:29:45;;;;;;;25.80;14.80;;;22.30;48.70;;;;;;212025;1312;25215;-50
2022/12/15 17:35:16;;;;;;;30.10;14.50;;;22.20;47.80;;;;;;211825;1306;24253;-53
2022/12/15 17:40:25;;;;;;;27.10;14.90;;;22.10;48.80;;;;;;211907;1306;22746;-52
2022/12/15 17:45:45;;;;;;;37.30;14.50;;;22.10;49.00;;;;;;211647;1298;24259;-47
2022/12/15 17:50:52;;;;;;;28.00;15.40;;;21.90;48.50;;;;;;211798;1311;24326;-49
2022/12/15 17:56:05;;;;;;;20.10;13.90;;;21.90;48.40;;;;;;211882;1317;22696;-49
2022/12/15 18:01:16;;;;;;;28.50;15.50;;;21.90;48.70;;;;;;211799;1302;25674;-46
2022/12/15 18:06:34;;;;;;;25.10;16.00;;;21.80;48.10;;;;;;211871;1316;22588;-46
2022/12/15 18:11:43;;;;;;;22.60;15.90;;;21.70;47.80;;;;;;211876;1299;25547;-48
2022/12/15 18:16:50;;;;;;;27.80;15.80;;;21.50;47.50;;;;;;211864;1301;24758;-47
2022/12/15 18:21:58;;;;;;;24.50;16.40;;;21.50;47.40;;;;;;212287;1314;22616;-51
2022/12/15 18:27:14;;;;;;;29.40;18.30;;;21.40;47.30;;;;;;212114;1300;24281;-50
2022/12/15 18:32:37;;;;;;;30.30;18.40;;;21.40;47.30;;;;;;212021;1307;23978;-49
2022/12/15 18:37:41;;;;;;;;;;;21.30;47.40;;;;;;211784;1317;24237;-52
2022/12/15 18:42:46;;;;;;;29.40;19.00;;;21.40;47.30;;;;;;212017;1303;22608;-49
2022/12/15 18:47:52;;;;;;;30.70;19.80;;;21.60;47.10;;;;;;212159;1302;24399;-47
2022/12/15 18:53:03;;;;;;;30.20;20.50;;;21.80;46.30;;;;;;211962;1301;22601;-47
2022/12/15 18:58:19;;;;;;;32.40;21.50;;;22.00;45.50;;;;;;212077;1317;25210;-50
2022/12/15 19:03:25;;;;;;;33.60;21.80;;;22.20;45.40;;;;;;211976;1301;23072;-50
2022/12/15 19:08:34;;;;;;;29.10;21.90;;;22.20;45.00;;;;;;211980;1308;22480;-46
2022/12/15 19:13:39;;;;;;;34.20;21.70;;;22.40;44.60;;;;;;212060;1297;22519;-54
2022/12/15 19:25:04;;;;;;;31.70;22.20;;;22.50;44.10;;;;;;211876;1308;22477;-51
2022/12/15 19:30:42;;;;;;;33.90;22.50;;;22.60;44.00;;;;;;211898;1299;24143;-50
2022/12/15 19:36:24;;;;;;;32.90;23.60;;;22.60;44.20;;;;;;211585;1309;23781;-48
2022/12/15 19:41:58;;;;;;;34.70;25.60;;;22.80;44.00;;;;;;211079;1312;22518;-47
2022/12/15 19:47:45;;;;;;;39.60;27.30;;;22.80;44.70;;;;;;210789;1308;24458;-55
2022/12/15 19:53:40;;;;;;;39.40;28.20;;;22.90;44.40;;;;;;211138;1322;25428;-53
2022/12/15 19:58:47;;;;;;;40.70;28.30;;;23.00;44.10;;;;;;211160;1307;24253;-46
2022/12/15 20:03:53;;;;;;;40.60;27.70;;;23.00;44.60;;;;;;210935;1321;25148;-47
2022/12/15 20:08:58;;;;;;;40.60;29.30;;;23.00;43.30;;;;;;210979;1321;24221;-46
2022/12/15 20:14:16;;;;;;;40.10;29.80;;;23.00;44.20;;;;;;211739;1305;24243;-47
2022/12/15 20:19:29;;;;;;;41.50;29.70;;;22.90;44.40;;;;;;212004;1303;24278;-48
2022/12/15 20:24:32;;;;;;;46.40;30.30;;;22.70;44.30;;;;;;211813;1305;23244;-47
2022/12/15 20:29:36;;;;;;;48.10;30.10;;;22.60;44.70;;;;;;211864;1302;22550;-46
2022/12/15 20:34:46;;;;;;;47.60;30.50;;;22.50;45.10;;;;;;211834;1316;23955;-48
2022/12/15 20:39:51;;;;;;;45.70;31.50;;;22.50;44.90;;;;;;211906;1318;25136;-45
2022/12/15 20:45:00;;;;;;;;;;;22.40;44.60;;;;;;211950;1311;24003;-45
2022/12/15 20:50:17;;;;;;;45.20;31.40;;;22.20;45.00;;;;;;211937;1293;24257;-47
2022/12/15 20:55:21;;;;;;;54.30;32.40;;;22.10;45.40;;;;;;211968;1309;22511;-46
2022/12/15 21:00:25;;;;;;;50.70;33.80;;;22.00;45.80;;;;;;211707;1300;24270;-46
2022/12/15 21:05:34;;;;;;;53.40;33.80;;;22.00;45.30;;;;;;212697;1309;22499;-45
2022/12/15 21:10:44;;;;;;;51.60;34.20;;;21.90;45.80;;;;;;211863;1317;22487;-48
2022/12/15 21:15:51;;;;;;;48.70;33.10;;;21.80;45.50;;;;;;212078;1311;24231;-43
2022/12/15 21:21:00;;;;;;;51.00;33.20;;;21.70;45.80;;;;;;212102;1316;22475;-45
2022/12/15 21:26:25;;;;;;;47.80;32.10;;;21.60;45.90;;;;;;212051;1311;24293;-44
2022/12/15 21:31:31;;;;;;;47.60;31.70;;;21.50;46.20;;;;;;212090;1314;22598;-48
2022/12/15 21:36:37;;;;;;;47.60;31.70;;;21.40;46.20;;;;;;212013;1310;22546;-46
2022/12/15 21:41:46;;;;;;;50.50;31.90;;;21.40;46.40;;;;;;212045;1296;23286;-44
2022/12/15 21:46:51;;;;;;;46.30;30.40;;;21.30;46.30;;;;;;212030;1314;24206;-46
2022/12/15 21:52:03;;;;;;;46.50;31.00;;;21.30;46.50;;;;;;211970;1317;25425;-45
2022/12/15 21:57:30;;;;;;;42.50;29.60;;;21.40;46.60;;;;;;212041;1299;22582;-46
2022/12/15 22:02:37;;;;;;;43.00;29.20;;;21.70;46.20;;;;;;212065;1305;22528;-46
2022/12/15 22:08:00;;;;;;;39.50;28.60;;;22.00;46.00;;;;;;211984;1299;22531;-46
2022/12/15 22:13:20;;;;;;;43.10;28.00;;;22.30;45.10;;;;;;211846;1299;24285;-45
2022/12/15 22:18:25;;;;;;;56.60;27.90;;;22.50;44.80;;;;;;212009;1297;24260;-45
2022/12/15 22:23:33;;;;;;;44.80;26.20;;;22.70;51.20;;;;;;211917;1318;22598;-44
2022/12/15 22:28:41;;;;;;;45.20;27.80;;;23.00;48.10;;;;;;211856;1301;23675;-45
2022/12/15 22:34:14;;;;;;;43.90;29.20;;;23.00;47.40;;;;;;211855;1318;22562;-44
2022/12/15 22:39:27;;;;;;;41.10;30.00;;;23.10;46.50;;;;;;212030;1308;22640;-46
2022/12/15 22:45:03;;;;;;;40.60;29.30;;;23.10;46.70;;;;;;212018;1318;22558;-46
2022/12/15 22:50:29;;;;;;;46.10;28.40;;;23.10;47.00;;;;;;211967;1297;24388;-44
2022/12/15 22:55:47;;;;;;;42.20;26.40;;;23.10;51.00;;;;;;211901;1310;24768;-45
2022/12/15 23:01:16;;;;;;;40.30;25.60;;;23.10;50.10;;;;;;211580;1302;24294;-43
2022/12/15 23:06:27;;;;;;;42.70;27.20;;;23.00;51.70;;;;;;212040;1295;26825;-45
2022/12/15 23:11:40;;;;;;;40.10;26.20;;;22.90;51.80;;;;;;212016;1296;22479;-44
2022/12/15 23:16:45;;;;;;;38.60;25.60;;;22.70;52.30;;;;;;212016;1316;25538;-44
2022/12/15 23:21:54;;;;;;;34.90;24.50;;;22.60;51.80;;;;;;212032;1299;22843;-43
2022/12/15 23:27:01;;;;;;;40.90;26.30;;;22.50;52.00;;;;;;211995;1303;25259;-44
2022/12/15 23:32:21;;;;;;;41.90;27.50;;;22.40;52.30;;;;;;212160;1302;22492;-44
2022/12/15 23:37:39;;;;;;;37.70;25.20;;;22.30;52.90;;;;;;211914;1303;24256;-45
2022/12/15 23:42:45;;;;;;;36.50;24.80;;;22.30;52.60;;;;;;211916;1298;22505;-44
2022/12/15 23:47:49;;;;;;;36.80;24.00;;;22.20;52.50;;;;;;212068;1299;22755;-43
2022/12/15 23:52:57;;;;;;;38.20;24.70;;;22.00;52.30;;;;;;212085;1310;22465;-45
2022/12/15 23:58:04;;;;;;;36.90;25.80;;;22.00;52.40;;;;;;212008;1299;24267;-44
